Josephine, Alabama
Current Conditions -  °F | °C
As of 4:15 PM on Saturday 20 Dec 2014 (Local Time) from KJKA Reporting Station
Overcast Overcast  
Wind Chill: 11°   Ceiling: 900
Heat Index: 11°   Visibility: 10mi
Dew Point: 10°   Wind: 6mph
Humidity: 91%   Direction: 10°N
Pressure: 30.09"   Gusts: NA
Location:  30.4162°N, 87.5594°W
Report Text: KJKA 202215Z AUTO 01005KT 10SM OVC009 12/10 A3009 RMK AO2 T01150100
Loading
Personal Weather Stations






























Interactive Weather Map New forecast layout! Learn more

10-Day Weather Forecast

Advertisements
Track Severe Weather on mobile